Time;durP1;ratioP1;P1;durP2;ratioP2;P2;SDS_P1;SDS_P2;PMS_P1;PMS_P2;Temp;Humidity;BMP_temperature;BMP_pressure;BME280_temperature;BME280_humidity;BME280_pressure;Samples;Min_cycle;Max_cycle;Signal;HPM_P1;HPM_P2
2022/05/06 00:00:14;;;;;;;12.77;8.30;;;11.30;57.80;;;;;;5055932;28;20400;-73
2022/05/06 00:02:40;;;;;;;12.10;8.10;;;11.30;58.60;;;;;;5062538;28;20403;-72
2022/05/06 00:05:07;;;;;;;10.90;8.20;;;11.20;58.80;;;;;;5065705;28;20409;-73
2022/05/06 00:07:33;;;;;;;11.17;8.50;;;11.20;59.50;;;;;;5061902;28;20541;-71
2022/05/06 00:10:01;;;;;;;14.27;8.50;;;11.10;60.50;;;;;;5069257;28;20482;-72
2022/05/06 00:12:27;;;;;;;11.85;8.40;;;11.00;61.30;;;;;;5064632;28;20399;-73
2022/05/06 00:14:53;;;;;;;14.15;8.88;;;10.90;62.50;;;;;;5065121;28;20395;-73
2022/05/06 00:17:18;;;;;;;16.08;9.05;;;10.80;62.30;;;;;;5055490;28;20386;-73
2022/05/06 00:19:45;;;;;;;13.68;8.48;;;10.70;61.80;;;;;;5067778;28;20443;-73
2022/05/06 00:22:11;;;;;;;15.65;8.45;;;10.70;60.50;;;;;;5068946;28;20483;-73
2022/05/06 00:24:37;;;;;;;13.32;8.63;;;10.60;59.70;;;;;;5068067;28;20788;-72
2022/05/06 00:27:03;;;;;;;12.23;8.40;;;10.60;60.60;;;;;;5064553;28;20399;-73
2022/05/06 00:29:29;;;;;;;15.10;8.50;;;10.50;61.10;;;;;;5065061;28;20488;-71
2022/05/06 00:31:55;;;;;;;13.07;8.70;;;10.50;61.30;;;;;;5068318;28;20441;-73
2022/05/06 00:34:20;;;;;;;12.57;8.32;;;10.60;62.10;;;;;;5050490;28;20768;-72
2022/05/06 00:36:46;;;;;;;16.77;8.80;;;10.70;64.50;;;;;;5056546;28;20470;-70
2022/05/06 00:39:12;;;;;;;14.57;8.55;;;10.90;60.00;;;;;;5069500;28;20457;-72
2022/05/06 00:41:37;;;;;;;14.30;8.20;;;11.10;57.80;;;;;;5066577;28;20900;-74
2022/05/06 00:44:07;;;;;;;17.02;9.30;;;11.10;58.50;;;;;;5069004;28;20408;-72
2022/05/06 00:46:36;;;;;;;14.13;8.90;;;10.90;60.30;;;;;;5069976;28;20423;-74
2022/05/06 00:49:02;;;;;;;13.93;8.30;;;10.90;59.90;;;;;;5069463;28;20411;-73
2022/05/06 00:51:28;;;;;;;12.82;8.75;;;10.70;61.20;;;;;;5068976;28;20490;-71
2022/05/06 00:53:55;;;;;;;14.27;8.65;;;10.50;63.20;;;;;;5064024;28;20979;-73
2022/05/06 00:56:24;;;;;;;14.00;8.50;;;10.40;64.80;;;;;;5065430;28;20435;-72
2022/05/06 00:58:51;;;;;;;12.38;7.57;;;10.30;65.30;;;;;;5068159;28;21011;-73
2022/05/06 01:01:17;;;;;;;15.73;9.52;;;10.30;65.90;;;;;;5068931;28;20396;-73
2022/05/06 01:03:42;;;;;;;18.50;8.20;;;10.50;65.80;;;;;;5066152;28;20448;-73
2022/05/06 01:06:15;;;;;;;13.52;8.40;;;10.50;65.30;;;;;;5066938;28;20400;-73
2022/05/06 01:08:42;;;;;;;13.20;9.20;;;10.30;66.40;;;;;;5068078;28;20402;-72
2022/05/06 01:11:11;;;;;;;12.50;8.48;;;10.10;68.30;;;;;;5068923;28;20391;-74
2022/05/06 01:13:44;;;;;;;16.15;9.90;;;10.00;69.30;;;;;;5067919;28;20491;-72
2022/05/06 01:16:11;;;;;;;11.80;8.97;;;10.00;70.20;;;;;;5068952;28;20474;-73
2022/05/06 01:18:36;;;;;;;13.70;9.73;;;10.00;70.20;;;;;;5067646;28;20415;-72
2022/05/06 01:21:04;;;;;;;17.27;9.53;;;9.90;70.70;;;;;;5050102;28;20448;-72
2022/05/06 01:23:31;;;;;;;19.33;10.10;;;9.90;71.20;;;;;;5068911;28;20392;-75
2022/05/06 01:25:56;;;;;;;16.85;9.75;;;9.90;71.30;;;;;;5066349;28;20879;-73
2022/05/06 01:28:25;;;;;;;18.03;10.37;;;9.90;71.70;;;;;;5067976;28;20391;-72
2022/05/06 01:30:58;;;;;;;15.38;9.60;;;9.90;72.40;;;;;;5065837;28;20479;-72
2022/05/06 01:33:25;;;;;;;15.88;8.95;;;9.80;72.50;;;;;;5053046;28;20397;-74
2022/05/06 01:36:00;;;;;;;18.17;10.27;;;9.70;73.20;;;;;;5066930;28;21033;-73
2022/05/06 01:38:40;;;;;;;11.40;8.70;;;9.70;75.50;;;;;;5067664;28;20445;-72
2022/05/06 01:41:09;;;;;;;14.40;9.52;;;9.70;76.00;;;;;;5065171;28;20470;-73
2022/05/06 01:43:42;;;;;;;14.15;8.75;;;9.70;75.90;;;;;;5065356;28;20880;-72
2022/05/06 01:46:09;;;;;;;12.20;9.18;;;9.70;76.20;;;;;;5066970;28;20403;-72
2022/05/06 01:48:36;;;;;;;14.45;9.43;;;9.60;75.90;;;;;;5068186;28;20732;-73
2022/05/06 01:51:02;;;;;;;16.70;9.40;;;9.60;75.60;;;;;;5094847;22;20437;-76
2022/05/06 01:53:28;;;;;;;14.85;9.85;;;9.60;75.70;;;;;;5121635;27;20395;-76
2022/05/06 01:55:54;;;;;;;13.55;9.20;;;9.60;74.30;;;;;;5112796;27;20399;-76
2022/05/06 01:58:20;;;;;;;19.00;9.53;;;9.70;74.10;;;;;;5116766;27;20426;-76
2022/05/06 02:00:46;;;;;;;13.25;9.57;;;9.60;73.80;;;;;;5123247;27;20412;-76
2022/05/06 02:05:56;;;;;;;18.05;10.05;;;9.70;74.90;;;;;;5094193;28;20467;-76
2022/05/06 02:08:22;;;;;;;19.23;9.98;;;9.70;76.60;;;;;;5109270;28;20388;-75
2022/05/06 02:10:47;;;;;;;13.82;9.70;;;9.70;75.10;;;;;;5107258;28;20400;-77
2022/05/06 02:13:13;;;;;;;16.17;10.07;;;9.60;76.00;;;;;;5100517;28;20441;-75
2022/05/06 02:15:39;;;;;;;13.45;9.25;;;9.60;76.20;;;;;;5093142;28;20396;-76
2022/05/06 02:18:05;;;;;;;15.93;10.10;;;9.50;76.40;;;;;;5106627;28;20922;-75
2022/05/06 02:20:30;;;;;;;16.60;9.88;;;9.40;77.00;;;;;;5108870;28;20883;-75
2022/05/06 02:22:56;;;;;;;14.47;10.37;;;9.40;77.90;;;;;;5104230;28;20902;-75
2022/05/06 02:25:22;;;;;;;16.52;9.93;;;9.40;79.30;;;;;;5102187;28;20490;-75
2022/05/06 02:27:48;;;;;;;19.45;11.15;;;9.30;80.20;;;;;;5100676;28;20402;-76
2022/05/06 02:33:13;;;;;;;16.88;10.00;;;9.30;82.60;;;;;;5106907;28;20780;-76
2022/05/06 02:35:40;;;;;;;23.20;12.15;;;9.30;81.10;;;;;;5108063;28;20404;-75
2022/05/06 02:38:08;;;;;;;20.50;10.93;;;9.20;82.10;;;;;;5107406;28;20411;-76
2022/05/06 02:40:34;;;;;;;21.33;11.47;;;9.20;83.00;;;;;;5101020;28;20397;-75
2022/05/06 02:43:01;;;;;;;23.95;11.48;;;9.20;82.50;;;;;;5091567;28;20448;-76
2022/05/06 02:45:27;;;;;;;15.60;10.80;;;9.20;82.00;;;;;;5097827;28;20389;-75
2022/05/06 02:47:53;;;;;;;17.95;11.68;;;9.30;84.30;;;;;;5093965;28;20385;-76
2022/05/06 02:50:19;;;;;;;21.05;12.30;;;9.20;83.80;;;;;;5090112;28;20889;-75
2022/05/06 02:52:44;;;;;;;18.38;11.30;;;9.20;84.90;;;;;;5098900;28;20449;-76
2022/05/06 02:55:10;;;;;;;17.60;11.70;;;9.10;85.20;;;;;;5092413;28;20486;-75
2022/05/06 02:57:36;;;;;;;17.13;11.32;;;9.10;86.00;;;;;;5098357;28;20446;-76
2022/05/06 03:00:03;;;;;;;18.17;11.63;;;9.00;86.30;;;;;;5107567;28;20402;-75
2022/05/06 03:02:29;;;;;;;22.90;12.15;;;9.00;86.40;;;;;;5095861;28;20400;-72
2022/05/06 03:04:55;;;;;;;18.92;11.60;;;9.00;86.50;;;;;;5095379;28;20790;-73
2022/05/06 03:07:21;;;;;;;19.23;12.10;;;9.00;86.70;;;;;;5091785;28;20390;-73
2022/05/06 03:09:47;;;;;;;20.80;12.75;;;9.00;86.90;;;;;;5107011;28;20401;-73
2022/05/06 03:12:15;;;;;;;22.67;12.97;;;9.00;86.90;;;;;;5090822;28;20389;-73
2022/05/06 03:14:40;;;;;;;19.98;13.13;;;9.00;87.30;;;;;;5092773;28;20434;-73
2022/05/06 03:17:06;;;;;;;19.93;13.33;;;8.90;88.60;;;;;;5099547;28;20918;-74
2022/05/06 03:19:31;;;;;;;20.30;12.40;;;8.90;88.50;;;;;;5096786;28;20414;-73
2022/05/06 03:21:58;;;;;;;19.87;12.30;;;8.80;88.70;;;;;;5094964;28;20406;-74
2022/05/06 03:24:24;;;;;;;23.77;13.43;;;8.80;89.40;;;;;;5096235;28;20394;-74
2022/05/06 03:26:49;;;;;;;22.02;13.77;;;8.80;90.00;;;;;;5102239;28;20386;-74
2022/05/06 03:29:15;;;;;;;25.20;13.55;;;8.80;91.30;;;;;;5091641;28;20766;-74
2022/05/06 03:31:41;;;;;;;24.50;14.20;;;8.90;91.10;;;;;;5097842;28;20887;-74
2022/05/06 03:34:06;;;;;;;21.83;12.95;;;8.90;90.10;;;;;;5101220;28;20904;-73
2022/05/06 03:36:35;;;;;;;19.50;13.07;;;9.00;89.10;;;;;;5099095;28;20441;-73
2022/05/06 03:39:03;;;;;;;20.88;13.02;;;8.90;88.50;;;;;;5111018;28;20451;-73
2022/05/06 03:41:29;;;;;;;20.37;12.83;;;8.80;89.10;;;;;;5107490;28;20402;-74
2022/05/06 03:43:54;;;;;;;19.52;12.18;;;8.70;90.20;;;;;;5107232;28;20744;-73
2022/05/06 03:46:20;;;;;;;23.95;13.00;;;8.80;91.10;;;;;;5094104;28;20394;-74
2022/05/06 03:48:46;;;;;;;20.58;12.60;;;8.70;90.70;;;;;;5094237;28;20904;-73
2022/05/06 03:51:20;;;;;;;21.27;13.23;;;8.70;91.60;;;;;;5096418;28;20765;-73
2022/05/06 03:53:56;;;;;;;22.02;12.43;;;8.70;91.40;;;;;;5099171;28;20826;-73
2022/05/06 03:56:22;;;;;;;21.48;13.30;;;8.60;91.60;;;;;;5090473;28;20443;-73
2022/05/06 03:58:48;;;;;;;21.87;13.03;;;8.70;92.10;;;;;;5109361;28;20950;-74
2022/05/06 04:01:16;;;;;;;23.25;13.23;;;8.60;90.90;;;;;;5094578;28;20394;-75
2022/05/06 04:03:41;;;;;;;19.33;12.57;;;8.70;91.80;;;;;;5101302;28;20384;-73
2022/05/06 04:06:07;;;;;;;23.02;12.50;;;8.80;90.10;;;;;;5096865;28;20388;-73
2022/05/06 04:08:33;;;;;;;20.25;13.32;;;8.80;88.70;;;;;;5095990;28;20426;-74
2022/05/06 04:10:58;;;;;;;26.92;13.82;;;8.90;88.70;;;;;;5102668;28;20496;-75
2022/05/06 04:13:24;;;;;;;24.77;14.50;;;8.80;89.00;;;;;;5109381;28;20392;-74
2022/05/06 04:15:50;;;;;;;22.73;13.90;;;8.90;90.20;;;;;;5120566;28;20810;-74
2022/05/06 04:18:17;;;;;;;23.90;13.43;;;8.90;88.00;;;;;;5096902;28;20402;-74
2022/05/06 04:23:31;;;;;;;25.33;14.25;;;8.80;89.20;;;;;;5096056;28;20435;-74
2022/05/06 04:26:01;;;;;;;22.05;13.80;;;8.80;90.00;;;;;;5094415;28;20394;-74
2022/05/06 04:28:28;;;;;;;24.48;13.90;;;8.80;90.10;;;;;;5092289;28;20398;-74
2022/05/06 04:30:54;;;;;;;25.02;14.65;;;8.80;90.70;;;;;;5106034;28;20396;-74
2022/05/06 04:33:21;;;;;;;27.80;14.20;;;8.80;90.20;;;;;;5098123;28;20427;-75
2022/05/06 04:35:47;;;;;;;25.88;15.63;;;8.80;89.70;;;;;;5102971;28;20406;-73
2022/05/06 04:38:14;;;;;;;25.25;15.68;;;8.90;89.60;;;;;;5094048;28;20429;-73
2022/05/06 04:40:40;;;;;;;25.55;16.25;;;9.00;88.20;;;;;;5095258;28;20378;-73
2022/05/06 04:43:10;;;;;;;29.30;14.93;;;9.10;86.90;;;;;;5096663;28;20396;-75
2022/05/06 04:45:38;;;;;;;24.63;15.18;;;9.10;86.70;;;;;;5099830;28;20395;-73
2022/05/06 04:48:06;;;;;;;25.83;14.17;;;9.20;86.10;;;;;;5105308;28;20403;-75
2022/05/06 04:50:36;;;;;;;22.67;14.60;;;9.20;84.90;;;;;;5096719;28;20912;-74
2022/05/06 04:53:02;;;;;;;26.00;15.13;;;9.30;84.70;;;;;;5092149;28;20409;-75
2022/05/06 04:55:28;;;;;;;25.13;14.38;;;9.40;84.10;;;;;;5095301;28;20398;-75
2022/05/06 04:57:53;;;;;;;22.47;13.93;;;9.40;83.50;;;;;;5098799;28;20397;-74
2022/05/06 05:00:22;;;;;;;21.10;13.70;;;9.60;80.10;;;;;;5097282;28;20381;-73
2022/05/06 05:02:48;;;;;;;25.10;13.25;;;9.60;79.30;;;;;;5095096;28;20770;-78
2022/05/06 05:05:15;;;;;;;23.77;14.73;;;9.60;78.80;;;;;;5094442;28;20405;-75
2022/05/06 05:07:41;;;;;;;21.00;13.88;;;9.70;79.00;;;;;;5091515;28;20761;-75
2022/05/06 05:10:08;;;;;;;25.23;13.97;;;9.80;78.00;;;;;;5099324;28;20389;-75
2022/05/06 05:12:35;;;;;;;21.03;14.43;;;9.80;77.00;;;;;;5104442;28;20391;-76
2022/05/06 05:15:01;;;;;;;23.27;14.55;;;10.00;76.50;;;;;;5101691;28;20771;-75
2022/05/06 05:17:27;;;;;;;26.40;15.10;;;10.00;76.00;;;;;;5098488;28;20394;-76
2022/05/06 05:19:53;;;;;;;23.40;15.13;;;10.10;74.70;;;;;;5097535;28;20417;-76
2022/05/06 05:22:19;;;;;;;24.35;13.80;;;10.20;73.40;;;;;;5100312;28;20389;-76
2022/05/06 05:24:45;;;;;;;24.23;14.60;;;10.40;72.50;;;;;;5096580;28;20464;-75
2022/05/06 05:27:11;;;;;;;27.75;15.00;;;10.60;68.50;;;;;;5101228;28;20479;-76
2022/05/06 05:29:36;;;;;;;26.13;14.30;;;10.70;66.90;;;;;;5097171;28;20436;-76
2022/05/06 05:32:02;;;;;;;19.67;14.05;;;10.80;64.60;;;;;;5103640;28;20837;-75
2022/05/06 05:34:28;;;;;;;27.63;15.07;;;10.90;64.40;;;;;;5109650;28;20406;-76
2022/05/06 05:36:54;;;;;;;26.27;15.10;;;11.00;62.00;;;;;;5103485;28;20390;-78
2022/05/06 05:39:19;;;;;;;24.63;15.17;;;11.10;61.20;;;;;;5101971;28;20388;-77
2022/05/06 05:41:45;;;;;;;24.63;14.60;;;11.30;57.90;;;;;;5102008;28;20482;-77
2022/05/06 05:49:39;;;;;;;29.00;15.07;;;11.60;51.60;;;;;;5095463;28;20499;-75
2022/05/06 05:52:05;;;;;;;24.40;14.50;;;11.80;48.30;;;;;;5095980;28;20496;-75
2022/05/06 05:54:30;;;;;;;31.27;15.50;;;11.90;46.80;;;;;;5108553;27;20405;-74
2022/05/06 05:56:56;;;;;;;22.43;14.63;;;12.00;45.60;;;;;;5091558;28;20468;-77
2022/05/06 05:59:23;;;;;;;25.97;15.33;;;12.10;45.60;;;;;;5100611;28;20410;-75
2022/05/06 06:01:49;;;;;;;22.63;14.90;;;12.20;44.80;;;;;;5102226;28;20426;-78
2022/05/06 06:04:15;;;;;;;24.98;15.15;;;12.30;43.70;;;;;;5094009;28;20897;-77
2022/05/06 06:06:41;;;;;;;27.98;15.63;;;12.50;43.10;;;;;;5087971;28;20925;-76
2022/05/06 06:09:08;;;;;;;24.73;14.70;;;12.60;42.20;;;;;;5099795;28;20930;-78
2022/05/06 06:11:35;;;;;;;26.40;14.63;;;12.70;42.70;;;;;;5099844;28;20401;-78
2022/05/06 06:14:00;;;;;;;25.15;14.23;;;12.80;43.00;;;;;;5107222;28;20404;-79
2022/05/06 06:16:26;;;;;;;22.25;15.60;;;12.90;41.20;;;;;;5103498;28;20396;-81
2022/05/06 06:18:52;;;;;;;23.35;15.50;;;13.20;41.60;;;;;;5094148;28;20402;-76
2022/05/06 06:21:17;;;;;;;28.20;16.27;;;13.30;41.20;;;;;;5092492;28;20433;-79
2022/05/06 06:23:43;;;;;;;24.77;15.30;;;13.40;39.30;;;;;;5095374;28;20423;-81
2022/05/06 06:26:09;;;;;;;24.97;15.83;;;13.40;39.40;;;;;;5091760;28;20407;-75
2022/05/06 06:28:34;;;;;;;26.50;16.17;;;13.40;39.40;;;;;;5092700;28;20421;-76
2022/05/06 06:31:00;;;;;;;28.20;16.60;;;13.40;39.40;;;;;;5089829;28;20398;-74
2022/05/06 06:33:26;;;;;;;33.10;17.45;;;13.50;39.80;;;;;;5099746;28;20399;-77
2022/05/06 06:35:51;;;;;;;29.10;17.10;;;13.60;39.30;;;;;;5093784;28;20412;-80
2022/05/06 06:38:17;;;;;;;24.85;17.25;;;13.60;37.90;;;;;;5104367;28;20401;-79
2022/05/06 06:40:42;;;;;;;29.90;18.03;;;13.60;37.90;;;;;;5090127;28;20405;-77
2022/05/06 06:43:08;;;;;;;32.40;18.30;;;13.60;38.40;;;;;;5090192;28;20750;-75
2022/05/06 06:45:35;;;;;;;31.73;18.53;;;13.70;38.30;;;;;;5091110;28;20576;-74
2022/05/06 06:48:01;;;;;;;32.70;18.05;;;13.80;38.40;;;;;;5090750;28;20763;-77
2022/05/06 06:50:26;;;;;;;34.03;19.00;;;13.90;37.80;;;;;;5098939;28;20397;-75
2022/05/06 06:52:53;;;;;;;29.23;18.33;;;14.00;37.90;;;;;;5095451;28;20407;-76
2022/05/06 06:55:19;;;;;;;28.75;18.40;;;14.20;36.80;;;;;;5090872;28;20414;-76
2022/05/06 06:57:45;;;;;;;27.90;18.43;;;14.40;35.80;;;;;;5096938;28;20539;-75
2022/05/06 07:00:11;;;;;;;31.57;19.20;;;14.60;35.80;;;;;;5104498;28;20453;-76
2022/05/06 07:02:37;;;;;;;29.77;19.42;;;14.80;35.20;;;;;;5092283;28;20421;-76
2022/05/06 07:05:04;;;;;;;32.27;20.20;;;14.70;35.10;;;;;;5091406;28;20420;-75
2022/05/06 07:12:57;;;;;;;36.28;20.63;;;14.70;34.30;;;;;;5091730;28;20467;-74
2022/05/06 07:15:23;;;;;;;33.27;20.73;;;14.80;34.50;;;;;;5095681;28;20390;-77
2022/05/06 07:17:49;;;;;;;36.08;20.48;;;14.90;33.70;;;;;;5107128;28;20461;-81
2022/05/06 07:20:18;;;;;;;33.28;20.83;;;15.00;33.90;;;;;;5108559;28;20386;-77
2022/05/06 07:22:43;;;;;;;39.13;21.10;;;15.10;33.50;;;;;;5098445;28;20385;-77
2022/05/06 07:25:09;;;;;;;30.30;19.90;;;15.30;33.10;;;;;;5096425;28;20402;-77
2022/05/06 07:27:35;;;;;;;38.50;21.10;;;15.40;32.70;;;;;;5095394;28;20393;-77
2022/05/06 07:30:06;;;;;;;41.53;22.25;;;15.40;32.00;;;;;;5097184;28;20731;-77
2022/05/06 07:32:32;;;;;;;32.85;21.45;;;15.40;31.80;;;;;;5094937;28;20420;-76
2022/05/06 07:34:58;;;;;;;32.58;22.10;;;15.50;32.30;;;;;;5101146;28;20445;-76
2022/05/06 07:37:24;;;;;;;35.03;22.33;;;15.60;32.20;;;;;;5095125;28;20779;-77
2022/05/06 07:39:50;;;;;;;47.90;22.87;;;15.70;31.70;;;;;;5099332;28;20405;-77
2022/05/06 07:42:16;;;;;;;40.50;22.43;;;15.80;30.70;;;;;;5105149;28;20392;-77
2022/05/06 07:44:42;;;;;;;41.17;23.55;;;15.80;31.10;;;;;;5099251;28;20419;-78
2022/05/06 07:47:07;;;;;;;35.28;23.35;;;15.90;30.30;;;;;;5097541;28;20453;-77
2022/05/06 07:49:33;;;;;;;41.80;25.30;;;16.00;30.00;;;;;;5094291;28;20390;-75
2022/05/06 07:51:58;;;;;;;40.93;24.80;;;16.10;29.70;;;;;;5114359;22;20436;-74
2022/05/06 07:54:24;;;;;;;46.50;27.10;;;16.10;29.10;;;;;;5092974;28;20404;-74
2022/05/06 07:56:49;;;;;;;49.90;24.00;;;16.20;28.30;;;;;;5110245;28;20400;-74
2022/05/06 07:59:15;;;;;;;36.63;23.43;;;16.20;27.60;;;;;;5110503;28;20460;-73
2022/05/06 08:04:35;;;;;;;39.77;23.63;;;16.50;26.30;;;;;;5103025;28;20396;-74
2022/05/06 08:07:01;;;;;;;40.15;23.35;;;16.50;25.60;;;;;;5099469;28;20405;-72
2022/05/06 08:09:27;;;;;;;42.55;23.77;;;16.70;25.80;;;;;;5099891;28;20463;-72
2022/05/06 08:11:52;;;;;;;36.27;23.00;;;16.90;24.60;;;;;;5099909;28;20519;-72
2022/05/06 08:14:19;;;;;;;33.67;22.83;;;16.90;25.30;;;;;;5088266;28;20481;-74
2022/05/06 08:16:45;;;;;;;37.33;25.05;;;17.00;25.00;;;;;;5089595;28;20382;-73
2022/05/06 08:19:11;;;;;;;43.95;24.10;;;17.00;25.40;;;;;;5081205;28;20496;-73
2022/05/06 08:21:37;;;;;;;43.05;23.70;;;17.10;24.90;;;;;;5090441;28;20536;-72
2022/05/06 08:24:03;;;;;;;39.53;23.23;;;17.20;24.20;;;;;;5097332;28;20513;-74
2022/05/06 08:26:29;;;;;;;34.33;22.73;;;17.50;24.10;;;;;;5096508;28;20420;-74
2022/05/06 08:28:55;;;;;;;44.83;24.00;;;17.60;22.60;;;;;;5101618;28;20428;-74
2022/05/06 08:31:20;;;;;;;36.85;22.90;;;17.40;22.90;;;;;;5100303;28;20389;-72
2022/05/06 08:33:46;;;;;;;38.13;22.98;;;17.60;21.90;;;;;;5097244;28;20899;-71
2022/05/06 08:36:12;;;;;;;37.53;22.00;;;17.70;21.80;;;;;;5099209;28;20397;-72
2022/05/06 08:38:38;;;;;;;29.02;19.27;;;17.70;21.70;;;;;;5099083;28;20393;-72
2022/05/06 08:41:05;;;;;;;34.60;20.80;;;17.80;20.30;;;;;;5087790;28;20403;-72
2022/05/06 08:43:32;;;;;;;35.97;20.30;;;17.90;19.60;;;;;;5100457;28;20390;-74
2022/05/06 08:51:32;;;;;;;33.85;19.67;;;17.80;20.20;;;;;;5103111;28;20409;-73
2022/05/06 08:53:58;;;;;;;31.42;21.40;;;17.70;19.70;;;;;;5093229;28;20400;-73
2022/05/06 08:56:24;;;;;;;34.70;21.67;;;17.80;20.00;;;;;;5083139;28;20454;-74
2022/05/06 08:58:50;;;;;;;38.33;20.80;;;18.00;19.40;;;;;;5096175;28;20392;-73
2022/05/06 09:01:20;;;;;;;37.33;20.10;;;18.20;18.90;;;;;;5082469;28;20386;-74
2022/05/06 09:03:49;;;;;;;37.40;22.35;;;18.10;18.80;;;;;;5097457;28;20401;-74
2022/05/06 09:06:24;;;;;;;36.92;21.90;;;18.30;18.60;;;;;;5097575;28;20535;-73
2022/05/06 09:08:51;;;;;;;36.55;20.33;;;18.30;19.20;;;;;;5097377;28;20725;-74
2022/05/06 09:11:18;;;;;;;34.88;20.70;;;18.40;19.50;;;;;;5097427;28;20393;-73
2022/05/06 09:13:49;;;;;;;34.47;22.00;;;18.40;18.40;;;;;;5100706;28;20377;-72
2022/05/06 09:19:10;;;;;;;35.50;22.80;;;18.60;18.70;;;;;;5093228;28;20897;-72
2022/05/06 09:21:36;;;;;;;47.50;22.58;;;18.50;18.80;;;;;;5099652;28;20407;-73
2022/05/06 09:24:19;;;;;;;37.33;22.40;;;18.40;18.70;;;;;;5099147;28;20388;-73
2022/05/06 09:27:09;;;;;;;35.15;22.70;;;18.70;18.80;;;;;;5097743;28;20987;-74
2022/05/06 09:29:51;;;;;;;39.78;22.33;;;18.90;18.30;;;;;;5099153;28;20432;-72
2022/05/06 09:32:25;;;;;;;33.78;20.05;;;18.90;17.80;;;;;;5098462;28;20504;-72
2022/05/06 09:34:53;;;;;;;26.75;17.13;;;19.00;18.00;;;;;;5101378;28;20404;-70
2022/05/06 09:37:29;;;;;;;30.75;17.42;;;19.00;17.00;;;;;;5098393;28;20808;-72
2022/05/06 09:40:22;;;;;;;33.25;17.98;;;19.00;16.00;;;;;;5098358;28;20388;-74
2022/05/06 09:43:00;;;;;;;28.40;18.23;;;19.00;16.70;;;;;;5074928;28;20398;-73
2022/05/06 09:45:33;;;;;;;31.48;18.50;;;19.00;16.20;;;;;;5090394;28;20424;-73
2022/05/06 09:48:01;;;;;;;32.58;18.20;;;19.10;16.10;;;;;;5071032;28;20390;-73
2022/05/06 09:50:39;;;;;;;31.02;19.17;;;19.30;15.50;;;;;;5096273;28;20388;-72
2022/05/06 09:53:07;;;;;;;36.90;19.08;;;19.30;15.50;;;;;;5086363;28;20400;-73
2022/05/06 09:55:36;;;;;;;37.05;19.95;;;19.30;15.60;;;;;;5099016;28;22351;-72
2022/05/06 09:58:02;;;;;;;34.50;19.75;;;19.60;15.20;;;;;;5093792;28;20442;-72
2022/05/06 10:00:29;;;;;;;36.13;21.53;;;19.30;15.30;;;;;;5080934;28;20493;-71
2022/05/06 10:02:58;;;;;;;37.75;22.90;;;19.30;15.80;;;;;;5097636;28;20870;-73
2022/05/06 10:05:24;;;;;;;37.33;21.30;;;19.40;15.10;;;;;;5097739;28;20770;-74
2022/05/06 10:07:55;;;;;;;35.88;20.40;;;19.50;15.80;;;;;;5095807;28;20397;-72
2022/05/06 10:10:24;;;;;;;34.92;20.70;;;19.30;15.60;;;;;;5078656;28;20394;-73
2022/05/06 10:12:55;;;;;;;33.65;20.33;;;19.20;15.40;;;;;;5098979;28;20392;-73
2022/05/06 10:15:24;;;;;;;36.85;21.90;;;18.90;15.70;;;;;;5088998;28;20488;-73
2022/05/06 10:18:06;;;;;;;39.03;23.35;;;18.90;16.70;;;;;;5075683;28;20400;-73
2022/05/06 10:20:44;;;;;;;41.50;24.70;;;18.80;16.90;;;;;;5097172;28;20417;-72
2022/05/06 10:23:11;;;;;;;43.65;28.38;;;18.80;16.90;;;;;;5100320;28;20395;-73
2022/05/06 10:25:40;;;;;;;48.40;30.50;;;19.00;16.20;;;;;;5094750;28;20756;-73
2022/05/06 10:34:17;;;;;;;47.13;31.40;;;19.20;15.30;;;;;;5106482;28;20415;-71
2022/05/06 10:36:56;;;;;;;48.13;29.77;;;19.50;14.60;;;;;;5112223;28;20399;-73
2022/05/06 10:39:26;;;;;;;44.13;28.80;;;19.90;14.70;;;;;;5102155;28;20436;-74
2022/05/06 10:42:03;;;;;;;47.63;29.52;;;20.00;14.20;;;;;;5099665;28;20899;-73
2022/05/06 10:44:48;;;;;;;47.67;30.55;;;20.00;14.50;;;;;;5100617;28;20393;-72
2022/05/06 10:47:14;;;;;;;42.73;28.30;;;20.30;14.30;;;;;;5104596;28;20931;-72
2022/05/06 10:49:39;;;;;;;44.70;27.70;;;20.60;15.00;;;;;;5099199;28;20905;-71
2022/05/06 10:52:14;;;;;;;46.78;28.52;;;21.00;14.40;;;;;;5098931;28;20439;-72
2022/05/06 10:54:40;;;;;;;42.03;27.48;;;21.30;13.20;;;;;;5084674;28;20419;-72
2022/05/06 10:57:07;;;;;;;41.45;26.58;;;21.50;12.50;;;;;;5094858;28;20419;-72
2022/05/06 10:59:55;;;;;;;43.05;26.25;;;21.80;11.90;;;;;;5084830;28;20885;-72
2022/05/06 11:02:23;;;;;;;37.22;25.38;;;22.30;11.60;;;;;;5085592;28;20394;-72
2022/05/06 11:05:02;;;;;;;35.00;26.35;;;22.20;10.80;;;;;;5075492;28;20399;-74
2022/05/06 11:07:30;;;;;;;37.60;26.40;;;21.50;11.90;;;;;;5078275;28;20404;-72
2022/05/06 11:09:56;;;;;;;42.10;27.95;;;21.20;11.60;;;;;;5097098;28;20397;-73
2022/05/06 11:12:33;;;;;;;42.10;28.08;;;20.80;12.30;;;;;;5096181;28;20423;-74
2022/05/06 11:15:02;;;;;;;46.08;28.63;;;20.50;13.00;;;;;;5097752;28;20739;-72
2022/05/06 11:17:27;;;;;;;49.92;30.17;;;20.40;13.90;;;;;;5108282;28;21848;-73
2022/05/06 11:19:56;;;;;;;47.78;31.17;;;20.40;15.30;;;;;;5110562;28;20388;-71
2022/05/06 11:22:23;;;;;;;45.22;31.90;;;20.10;16.00;;;;;;5103446;28;20908;-73
2022/05/06 11:24:48;;;;;;;50.92;33.65;;;20.00;16.70;;;;;;5103981;28;20459;-73
2022/05/06 11:27:18;;;;;;;56.93;33.53;;;20.10;16.80;;;;;;5109670;28;20474;-72
2022/05/06 11:29:51;;;;;;;46.13;32.92;;;20.20;16.30;;;;;;5108600;28;20392;-72
2022/05/06 11:32:17;;;;;;;50.45;32.63;;;20.30;16.10;;;;;;5092604;28;20392;-72
2022/05/06 11:35:01;;;;;;;41.57;28.87;;;20.30;15.40;;;;;;5102140;28;20495;-72
2022/05/06 11:37:28;;;;;;;43.38;28.42;;;20.30;14.30;;;;;;5095989;28;20430;-75
2022/05/06 11:42:39;;;;;;;53.30;34.95;;;20.50;14.00;;;;;;5094064;28;20460;-73
2022/05/06 11:47:50;;;;;;;42.33;27.88;;;20.30;14.40;;;;;;5096377;28;20423;-71
2022/05/06 11:50:16;;;;;;;41.28;28.42;;;20.60;13.70;;;;;;5094624;28;20394;-73
2022/05/06 11:52:45;;;;;;;35.90;26.55;;;20.80;12.90;;;;;;5098257;28;20410;-72
2022/05/06 11:55:11;;;;;;;41.13;26.90;;;21.00;12.30;;;;;;5093257;28;20402;-72
2022/05/06 11:57:39;;;;;;;40.17;27.43;;;21.40;12.50;;;;;;5095368;28;20757;-71
2022/05/06 12:00:06;;;;;;;36.58;23.75;;;21.70;11.20;;;;;;5097884;28;20455;-72
2022/05/06 12:02:31;;;;;;;38.45;26.65;;;21.90;10.30;;;;;;5096446;28;20394;-72
2022/05/06 12:04:57;;;;;;;37.30;25.97;;;21.70;11.20;;;;;;5096320;28;20775;-72
2022/05/06 12:07:41;;;;;;;35.57;25.63;;;21.60;10.30;;;;;;5098400;28;20386;-71
2022/05/06 12:10:08;;;;;;;37.83;25.27;;;21.70;10.90;;;;;;5093909;28;20405;-72
2022/05/06 12:12:33;;;;;;;34.75;23.55;;;21.80;10.00;;;;;;5094993;28;20634;-71
2022/05/06 12:15:11;;;;;;;35.60;24.03;;;21.70;10.70;;;;;;5097803;28;20804;-73
2022/05/06 12:17:37;;;;;;;34.70;23.17;;;21.30;10.70;;;;;;5096806;28;20397;-72
2022/05/06 12:20:03;;;;;;;34.13;23.45;;;21.40;10.60;;;;;;5098138;28;20398;-72
2022/05/06 12:22:28;;;;;;;35.17;23.15;;;21.70;11.70;;;;;;5097821;28;20456;-72
2022/05/06 12:24:57;;;;;;;32.08;21.13;;;22.10;10.30;;;;;;5096177;28;20427;-72
2022/05/06 12:27:30;;;;;;;31.15;22.25;;;22.20;9.70;;;;;;5091829;28;20406;-71
2022/05/06 12:30:01;;;;;;;37.07;25.03;;;22.20;9.30;;;;;;5083668;28;20396;-72
2022/05/06 12:32:30;;;;;;;34.53;20.90;;;22.50;10.10;;;;;;5105515;28;20398;-72
2022/05/06 12:35:05;;;;;;;42.20;23.90;;;23.00;8.50;;;;;;5109106;28;20404;-71
2022/05/06 12:37:31;;;;;;;45.75;29.00;;;23.00;9.90;;;;;;5106635;28;20388;-72
2022/05/06 12:39:59;;;;;;;41.03;26.13;;;21.80;11.10;;;;;;5108960;28;20384;-70
2022/05/06 12:42:25;;;;;;;39.05;26.02;;;21.20;12.10;;;;;;5077039;28;20390;-72
2022/05/06 12:44:51;;;;;;;42.92;25.80;;;21.00;13.10;;;;;;5091721;28;20485;-72
2022/05/06 12:50:05;;;;;;;39.25;23.23;;;21.20;12.20;;;;;;5089330;28;20461;-72
2022/05/06 12:52:35;;;;;;;50.05;27.50;;;21.40;11.90;;;;;;5093670;28;20778;-72
2022/05/06 12:55:01;;;;;;;37.72;25.65;;;21.50;11.50;;;;;;5092280;28;20416;-74
2022/05/06 12:57:28;;;;;;;42.17;25.93;;;21.50;11.30;;;;;;5097649;28;20401;-71
2022/05/06 12:59:53;;;;;;;37.03;26.02;;;21.50;11.80;;;;;;5093991;28;20518;-72
2022/05/06 13:02:19;;;;;;;38.03;26.52;;;21.50;11.80;;;;;;5093152;28;20477;-72
2022/05/06 13:04:45;;;;;;;41.27;26.40;;;21.60;11.10;;;;;;5085100;28;20390;-75
2022/05/06 13:07:10;;;;;;;45.37;28.53;;;21.80;11.30;;;;;;5093969;28;20447;-73
2022/05/06 13:09:36;;;;;;;47.75;29.70;;;21.90;11.60;;;;;;5093241;28;20422;-73
2022/05/06 13:12:02;;;;;;;44.22;28.83;;;21.30;11.80;;;;;;5108490;28;20400;-73
2022/05/06 13:14:27;;;;;;;47.45;28.17;;;21.20;12.20;;;;;;5107814;28;20412;-72
2022/05/06 13:16:53;;;;;;;43.80;27.73;;;21.20;12.50;;;;;;5088940;28;20391;-75